sensor_id;sensor_type;location;lat;lon;timestamp;pressure;altitude;pressure_sealevel;temperature;humidity
24962;BME280;12992;50.884;13.668;2023-01-08T00:01:34;96782.13;;;6.75;100.00
24962;BME280;12992;50.884;13.668;2023-01-08T00:03:59;96786.25;;;6.78;100.00
24962;BME280;12992;50.884;13.668;2023-01-08T00:06:24;96772.63;;;6.73;100.00
24962;BME280;12992;50.884;13.668;2023-01-08T00:08:50;96773.72;;;6.72;100.00
24962;BME280;12992;50.884;13.668;2023-01-08T00:11:16;96778.88;;;6.73;100.00
24962;BME280;12992;50.884;13.668;2023-01-08T00:13:41;96764.75;;;6.71;100.00
24962;BME280;12992;50.884;13.668;2023-01-08T00:16:10;96758.75;;;6.69;100.00
24962;BME280;12992;50.884;13.668;2023-01-08T00:18:35;96759.81;;;6.68;100.00
24962;BME280;12992;50.884;13.668;2023-01-08T00:21:01;96759.09;;;6.73;100.00
24962;BME280;12992;50.884;13.668;2023-01-08T00:23:26;96762.13;;;6.76;99.71
24962;BME280;12992;50.884;13.668;2023-01-08T00:25:52;96778.22;;;6.83;99.01
24962;BME280;12992;50.884;13.668;2023-01-08T00:28:17;96777.41;;;6.82;98.41
24962;BME280;12992;50.884;13.668;2023-01-08T00:30:44;96773.28;;;6.80;98.73
24962;BME280;12992;50.884;13.668;2023-01-08T00:33:10;96758.72;;;6.81;98.51
24962;BME280;12992;50.884;13.668;2023-01-08T00:35:39;96755.41;;;6.79;99.17
24962;BME280;12992;50.884;13.668;2023-01-08T00:38:04;96749.97;;;6.79;98.78
24962;BME280;12992;50.884;13.668;2023-01-08T00:40:32;96753.75;;;6.78;98.81
24962;BME280;12992;50.884;13.668;2023-01-08T00:42:58;96744.81;;;6.77;99.50
24962;BME280;12992;50.884;13.668;2023-01-08T00:45:23;96749.50;;;6.82;98.68
24962;BME280;12992;50.884;13.668;2023-01-08T00:47:48;96747.38;;;6.84;98.21
24962;BME280;12992;50.884;13.668;2023-01-08T00:50:15;96747.22;;;6.91;97.29
24962;BME280;12992;50.884;13.668;2023-01-08T00:52:40;96740.16;;;6.90;97.39
24962;BME280;12992;50.884;13.668;2023-01-08T00:55:06;96733.44;;;6.92;97.23
24962;BME280;12992;50.884;13.668;2023-01-08T00:57:36;96724.25;;;6.93;96.64
24962;BME280;12992;50.884;13.668;2023-01-08T01:00:04;96715.88;;;6.95;96.14
24962;BME280;12992;50.884;13.668;2023-01-08T01:02:30;96718.31;;;6.96;95.73
24962;BME280;12992;50.884;13.668;2023-01-08T01:04:55;96708.56;;;6.95;95.69
24962;BME280;12992;50.884;13.668;2023-01-08T01:07:21;96712.44;;;6.99;95.01
24962;BME280;12992;50.884;13.668;2023-01-08T01:09:46;96701.00;;;6.97;94.71
24962;BME280;12992;50.884;13.668;2023-01-08T01:12:11;96699.47;;;7.01;93.98
24962;BME280;12992;50.884;13.668;2023-01-08T01:14:37;96680.50;;;7.01;93.99
24962;BME280;12992;50.884;13.668;2023-01-08T01:17:03;96669.13;;;6.99;94.03
24962;BME280;12992;50.884;13.668;2023-01-08T01:19:28;96664.53;;;7.00;93.86
24962;BME280;12992;50.884;13.668;2023-01-08T01:21:54;96665.91;;;7.02;93.27
24962;BME280;12992;50.884;13.668;2023-01-08T01:24:19;96674.34;;;7.06;92.65
24962;BME280;12992;50.884;13.668;2023-01-08T01:26:48;96675.66;;;7.03;92.72
24962;BME280;12992;50.884;13.668;2023-01-08T01:29:13;96664.03;;;7.03;92.46
24962;BME280;12992;50.884;13.668;2023-01-08T01:31:38;96674.03;;;7.02;92.51
24962;BME280;12992;50.884;13.668;2023-01-08T01:34:03;96677.00;;;7.01;92.42
24962;BME280;12992;50.884;13.668;2023-01-08T01:36:29;96681.06;;;7.03;92.66
24962;BME280;12992;50.884;13.668;2023-01-08T01:38:55;96681.34;;;7.02;92.58
24962;BME280;12992;50.884;13.668;2023-01-08T01:41:31;96685.38;;;6.99;92.89
24962;BME280;12992;50.884;13.668;2023-01-08T01:43:59;96686.34;;;6.93;93.32
24962;BME280;12992;50.884;13.668;2023-01-08T01:46:43;96672.16;;;6.86;93.60
24962;BME280;12992;50.884;13.668;2023-01-08T01:49:11;96672.16;;;6.86;93.70
24962;BME280;12992;50.884;13.668;2023-01-08T01:51:40;96671.03;;;6.82;93.80
24962;BME280;12992;50.884;13.668;2023-01-08T01:54:08;96676.44;;;6.82;93.76
24962;BME280;12992;50.884;13.668;2023-01-08T01:56:35;96678.00;;;6.78;94.35
24962;BME280;12992;50.884;13.668;2023-01-08T01:59:00;96673.34;;;6.73;94.43
24962;BME280;12992;50.884;13.668;2023-01-08T02:01:27;96664.41;;;6.73;94.50
24962;BME280;12992;50.884;13.668;2023-01-08T02:03:52;96653.22;;;6.69;94.81
24962;BME280;12992;50.884;13.668;2023-01-08T02:06:40;96643.72;;;6.67;95.55
24962;BME280;12992;50.884;13.668;2023-01-08T02:09:18;96642.91;;;6.66;95.53
24962;BME280;12992;50.884;13.668;2023-01-08T02:11:53;96642.91;;;6.66;94.85
24962;BME280;12992;50.884;13.668;2023-01-08T02:17:36;96614.53;;;6.69;94.97
24962;BME280;12992;50.884;13.668;2023-01-08T02:20:10;96621.59;;;6.70;95.15
24962;BME280;12992;50.884;13.668;2023-01-08T02:22:59;96621.31;;;6.71;95.27
24962;BME280;12992;50.884;13.668;2023-01-08T02:25:41;96626.53;;;6.73;94.66
24962;BME280;12992;50.884;13.668;2023-01-08T02:28:11;96638.41;;;6.72;95.15
24962;BME280;12992;50.884;13.668;2023-01-08T02:30:38;96641.13;;;6.72;95.37
24962;BME280;12992;50.884;13.668;2023-01-08T02:33:03;96629.44;;;6.71;95.64
24962;BME280;12992;50.884;13.668;2023-01-08T02:35:38;96635.72;;;6.72;95.33
24962;BME280;12992;50.884;13.668;2023-01-08T02:38:04;96625.06;;;6.65;96.17
24962;BME280;12992;50.884;13.668;2023-01-08T02:40:46;96623.66;;;6.63;96.12
24962;BME280;12992;50.884;13.668;2023-01-08T02:43:31;96618.72;;;6.60;96.86
24962;BME280;12992;50.884;13.668;2023-01-08T02:46:00;96606.78;;;6.56;97.92
24962;BME280;12992;50.884;13.668;2023-01-08T02:51:14;96595.22;;;6.43;99.18
24962;BME280;12992;50.884;13.668;2023-01-08T02:53:44;96588.13;;;6.37;99.65
24962;BME280;12992;50.884;13.668;2023-01-08T02:56:15;96592.44;;;6.38;100.00
24962;BME280;12992;50.884;13.668;2023-01-08T02:58:43;96592.91;;;6.35;100.00
24962;BME280;12992;50.884;13.668;2023-01-08T03:01:10;96573.53;;;6.21;100.00
24962;BME280;12992;50.884;13.668;2023-01-08T03:03:38;96586.88;;;6.28;100.00
24962;BME280;12992;50.884;13.668;2023-01-08T03:06:07;96585.22;;;6.27;100.00
24962;BME280;12992;50.884;13.668;2023-01-08T03:08:35;96585.72;;;6.24;100.00
24962;BME280;12992;50.884;13.668;2023-01-08T03:11:05;96576.75;;;6.18;100.00
24962;BME280;12992;50.884;13.668;2023-01-08T03:13:48;96584.59;;;6.20;100.00
24962;BME280;12992;50.884;13.668;2023-01-08T03:16:22;96579.66;;;6.17;100.00
24962;BME280;12992;50.884;13.668;2023-01-08T03:18:53;96588.03;;;6.15;100.00
24962;BME280;12992;50.884;13.668;2023-01-08T03:21:21;96582.63;;;6.15;100.00
24962;BME280;12992;50.884;13.668;2023-01-08T03:23:47;96586.69;;;6.18;100.00
24962;BME280;12992;50.884;13.668;2023-01-08T03:26:17;96597.50;;;6.18;100.00
24962;BME280;12992;50.884;13.668;2023-01-08T03:28:46;96595.41;;;6.20;100.00
24962;BME280;12992;50.884;13.668;2023-01-08T03:31:14;96594.81;;;6.18;100.00
24962;BME280;12992;50.884;13.668;2023-01-08T03:33:42;96594.91;;;6.23;100.00
24962;BME280;12992;50.884;13.668;2023-01-08T03:36:12;96585.72;;;6.24;100.00
24962;BME280;12992;50.884;13.668;2023-01-08T03:38:42;96589.59;;;6.28;100.00
24962;BME280;12992;50.884;13.668;2023-01-08T03:41:12;96597.50;;;6.35;100.00
24962;BME280;12992;50.884;13.668;2023-01-08T03:43:39;96600.00;;;6.36;100.00
24962;BME280;12992;50.884;13.668;2023-01-08T03:46:08;96581.63;;;6.38;100.00
24962;BME280;12992;50.884;13.668;2023-01-08T03:48:36;96583.28;;;6.39;100.00
24962;BME280;12992;50.884;13.668;2023-01-08T03:51:02;96586.03;;;6.44;100.00
24962;BME280;12992;50.884;13.668;2023-01-08T03:53:28;96587.19;;;6.48;100.00
24962;BME280;12992;50.884;13.668;2023-01-08T03:55:54;96578.66;;;6.57;100.00
24962;BME280;12992;50.884;13.668;2023-01-08T03:58:19;96574.97;;;6.63;100.00
24962;BME280;12992;50.884;13.668;2023-01-08T04:00:44;96578.03;;;6.71;100.00
24962;BME280;12992;50.884;13.668;2023-01-08T04:03:09;96579.44;;;6.74;100.00
24962;BME280;12992;50.884;13.668;2023-01-08T04:05:35;96577.69;;;6.85;99.83
24962;BME280;12992;50.884;13.668;2023-01-08T04:08:00;96554.72;;;6.87;100.00
24962;BME280;12992;50.884;13.668;2023-01-08T04:10:25;96559.13;;;6.93;99.30
24962;BME280;12992;50.884;13.668;2023-01-08T04:12:51;96542.63;;;6.95;98.53
24962;BME280;12992;50.884;13.668;2023-01-08T04:15:17;96547.31;;;6.99;98.61
24962;BME280;12992;50.884;13.668;2023-01-08T04:17:42;96543.53;;;7.00;98.25
24962;BME280;12992;50.884;13.668;2023-01-08T04:20:08;96545.72;;;7.03;97.91
24962;BME280;12992;50.884;13.668;2023-01-08T04:22:34;96561.22;;;7.08;97.48
24962;BME280;12992;50.884;13.668;2023-01-08T04:24:59;96563.69;;;7.09;97.06
24962;BME280;12992;50.884;13.668;2023-01-08T04:27:24;96565.81;;;7.07;97.47
24962;BME280;12992;50.884;13.668;2023-01-08T04:29:50;96566.88;;;7.06;97.39
24962;BME280;12992;50.884;13.668;2023-01-08T04:32:15;96563.13;;;7.07;97.48
24962;BME280;12992;50.884;13.668;2023-01-08T04:34:40;96568.53;;;7.07;97.91
24962;BME280;12992;50.884;13.668;2023-01-08T04:37:06;96570.16;;;7.08;97.86
24962;BME280;12992;50.884;13.668;2023-01-08T04:39:31;96569.09;;;7.09;97.68
24962;BME280;12992;50.884;13.668;2023-01-08T04:41:56;96571.53;;;7.11;97.79
24962;BME280;12992;50.884;13.668;2023-01-08T04:44:22;96576.22;;;7.16;97.27
24962;BME280;12992;50.884;13.668;2023-01-08T04:46:47;96567.00;;;7.17;97.32
24962;BME280;12992;50.884;13.668;2023-01-08T04:49:12;96557.25;;;7.16;97.36
24962;BME280;12992;50.884;13.668;2023-01-08T04:51:38;96566.69;;;7.13;97.45
24962;BME280;12992;50.884;13.668;2023-01-08T04:54:04;96553.91;;;7.08;98.38
24962;BME280;12992;50.884;13.668;2023-01-08T04:56:29;96551.13;;;7.03;98.91
24962;BME280;12992;50.884;13.668;2023-01-08T04:58:55;96546.41;;;6.94;99.78
24962;BME280;12992;50.884;13.668;2023-01-08T05:01:22;96536.34;;;6.89;100.00
24962;BME280;12992;50.884;13.668;2023-01-08T05:03:56;96526.78;;;6.81;100.00
24962;BME280;12992;50.884;13.668;2023-01-08T05:06:22;96526.97;;;6.75;100.00
24962;BME280;12992;50.884;13.668;2023-01-08T05:08:47;96511.72;;;6.69;100.00
24962;BME280;12992;50.884;13.668;2023-01-08T05:11:13;96512.22;;;6.66;100.00
24962;BME280;12992;50.884;13.668;2023-01-08T05:13:38;96508.06;;;6.58;100.00
24962;BME280;12992;50.884;13.668;2023-01-08T05:16:03;96508.59;;;6.55;100.00
24962;BME280;12992;50.884;13.668;2023-01-08T05:18:29;96513.75;;;6.57;100.00
24962;BME280;12992;50.884;13.668;2023-01-08T05:21:02;96517.50;;;6.56;100.00
24962;BME280;12992;50.884;13.668;2023-01-08T05:23:29;96516.69;;;6.55;100.00
24962;BME280;12992;50.884;13.668;2023-01-08T05:25:56;96515.28;;;6.52;100.00
24962;BME280;12992;50.884;13.668;2023-01-08T05:28:22;96517.78;;;6.54;100.00
24962;BME280;12992;50.884;13.668;2023-01-08T05:30:48;96520.47;;;6.54;100.00
24962;BME280;12992;50.884;13.668;2023-01-08T05:33:13;96518.00;;;6.52;100.00
24962;BME280;12992;50.884;13.668;2023-01-08T05:35:39;96512.59;;;6.52;100.00
24962;BME280;12992;50.884;13.668;2023-01-08T05:38:04;96498.50;;;6.50;100.00
24962;BME280;12992;50.884;13.668;2023-01-08T05:40:29;96500.13;;;6.51;100.00
24962;BME280;12992;50.884;13.668;2023-01-08T05:42:58;96499.06;;;6.52;100.00
24962;BME280;12992;50.884;13.668;2023-01-08T05:45:23;96489.56;;;6.50;100.00
24962;BME280;12992;50.884;13.668;2023-01-08T05:47:48;96502.09;;;6.56;100.00
24962;BME280;12992;50.884;13.668;2023-01-08T05:50:14;96504.25;;;6.54;100.00
24962;BME280;12992;50.884;13.668;2023-01-08T05:52:39;96511.50;;;6.53;100.00
24962;BME280;12992;50.884;13.668;2023-01-08T05:55:05;96503.34;;;6.48;100.00
24962;BME280;12992;50.884;13.668;2023-01-08T05:57:30;96511.78;;;6.52;100.00
24962;BME280;12992;50.884;13.668;2023-01-08T05:59:55;96509.81;;;6.47;100.00
24962;BME280;12992;50.884;13.668;2023-01-08T06:02:20;96498.44;;;6.45;100.00
24962;BME280;12992;50.884;13.668;2023-01-08T06:04:46;96497.69;;;6.50;100.00
24962;BME280;12992;50.884;13.668;2023-01-08T06:07:11;96489.06;;;6.53;100.00
24962;BME280;12992;50.884;13.668;2023-01-08T06:09:36;96499.00;;;6.47;100.00
24962;BME280;12992;50.884;13.668;2023-01-08T06:12:02;96507.50;;;6.56;100.00
24962;BME280;12992;50.884;13.668;2023-01-08T06:14:27;96499.97;;;6.58;99.35
24962;BME280;12992;50.884;13.668;2023-01-08T06:16:52;96502.16;;;6.61;99.02
24962;BME280;12992;50.884;13.668;2023-01-08T06:19:18;96500.91;;;6.69;97.92
24962;BME280;12992;50.884;13.668;2023-01-08T06:21:43;96496.06;;;6.71;97.48
24962;BME280;12992;50.884;13.668;2023-01-08T06:24:09;96485.69;;;6.63;97.76
24962;BME280;12992;50.884;13.668;2023-01-08T06:26:34;96499.28;;;6.68;97.33
24962;BME280;12992;50.884;13.668;2023-01-08T06:29:00;96488.69;;;6.66;97.24
24962;BME280;12992;50.884;13.668;2023-01-08T06:31:25;96492.47;;;6.65;96.90
24962;BME280;12992;50.884;13.668;2023-01-08T06:33:50;96488.41;;;6.63;96.54
24962;BME280;12992;50.884;13.668;2023-01-08T06:36:16;96481.91;;;6.64;96.32
24962;BME280;12992;50.884;13.668;2023-01-08T06:38:41;96486.72;;;6.62;96.18
24962;BME280;12992;50.884;13.668;2023-01-08T06:41:08;96486.34;;;6.53;96.38
24962;BME280;12992;50.884;13.668;2023-01-08T06:43:34;96491.34;;;6.61;96.07
24962;BME280;12992;50.884;13.668;2023-01-08T06:46:00;96497.00;;;6.60;95.89
24962;BME280;12992;50.884;13.668;2023-01-08T06:48:26;96492.41;;;6.60;96.52
24962;BME280;12992;50.884;13.668;2023-01-08T06:50:51;96492.91;;;6.57;96.61
24962;BME280;12992;50.884;13.668;2023-01-08T06:53:17;96504.56;;;6.58;97.34
24962;BME280;12992;50.884;13.668;2023-01-08T06:55:42;96510.47;;;6.55;97.81
24962;BME280;12992;50.884;13.668;2023-01-08T06:58:08;96494.16;;;6.49;97.93
24962;BME280;12992;50.884;13.668;2023-01-08T07:00:36;96495.16;;;6.43;98.80
24962;BME280;12992;50.884;13.668;2023-01-08T07:03:01;96504.50;;;6.36;99.80
24962;BME280;12992;50.884;13.668;2023-01-08T07:05:27;96498.78;;;6.32;100.00
24962;BME280;12992;50.884;13.668;2023-01-08T07:07:52;96502.56;;;6.31;100.00
24962;BME280;12992;50.884;13.668;2023-01-08T07:10:17;96507.97;;;6.31;100.00
24962;BME280;12992;50.884;13.668;2023-01-08T07:12:43;96512.00;;;6.29;100.00
24962;BME280;12992;50.884;13.668;2023-01-08T07:15:08;96510.59;;;6.26;100.00
24962;BME280;12992;50.884;13.668;2023-01-08T07:17:34;96508.38;;;6.23;100.00
24962;BME280;12992;50.884;13.668;2023-01-08T07:19:59;96519.22;;;6.23;100.00
24962;BME280;12992;50.884;13.668;2023-01-08T07:22:24;96528.69;;;6.25;100.00
24962;BME280;12992;50.884;13.668;2023-01-08T07:24:51;96533.84;;;6.27;100.00
24962;BME280;12992;50.884;13.668;2023-01-08T07:27:16;96534.19;;;6.31;100.00
24962;BME280;12992;50.884;13.668;2023-01-08T07:29:41;96545.31;;;6.34;100.00
24962;BME280;12992;50.884;13.668;2023-01-08T07:32:07;96537.47;;;6.33;100.00
24962;BME280;12992;50.884;13.668;2023-01-08T07:34:32;96551.13;;;6.43;100.00
24962;BME280;12992;50.884;13.668;2023-01-08T07:36:59;96553.91;;;6.48;100.00
24962;BME280;12992;50.884;13.668;2023-01-08T07:39:24;96547.75;;;6.52;100.00
24962;BME280;12992;50.884;13.668;2023-01-08T07:41:50;96548.41;;;6.60;100.00
24962;BME280;12992;50.884;13.668;2023-01-08T07:44:15;96543.53;;;6.62;100.00
24962;BME280;12992;50.884;13.668;2023-01-08T07:46:40;96556.09;;;6.68;100.00
24962;BME280;12992;50.884;13.668;2023-01-08T07:49:06;96548.63;;;6.75;100.00
24962;BME280;12992;50.884;13.668;2023-01-08T07:51:31;96542.88;;;6.71;100.00
24962;BME280;12992;50.884;13.668;2023-01-08T07:53:57;96546.91;;;6.69;100.00
24962;BME280;12992;50.884;13.668;2023-01-08T07:56:23;96534.19;;;6.69;100.00
24962;BME280;12992;50.884;13.668;2023-01-08T07:58:49;96534.53;;;6.73;100.00
24962;BME280;12992;50.884;13.668;2023-01-08T08:01:15;96553.16;;;6.91;99.87
24962;BME280;12992;50.884;13.668;2023-01-08T08:03:40;96547.22;;;6.94;99.12
24962;BME280;12992;50.884;13.668;2023-01-08T08:06:06;96535.28;;;6.90;99.02
24962;BME280;12992;50.884;13.668;2023-01-08T08:08:32;96533.56;;;6.84;99.72
24962;BME280;12992;50.884;13.668;2023-01-08T08:10:57;96549.94;;;6.94;99.12
24962;BME280;12992;50.884;13.668;2023-01-08T08:13:23;96542.13;;;6.98;98.90
24962;BME280;12992;50.884;13.668;2023-01-08T08:15:48;96537.84;;;7.02;98.73
24962;BME280;12992;50.884;13.668;2023-01-08T08:18:13;96533.25;;;7.02;98.17
24962;BME280;12992;50.884;13.668;2023-01-08T08:20:39;96544.16;;;7.07;98.03
24962;BME280;12992;50.884;13.668;2023-01-08T08:23:06;96548.00;;;7.12;97.67
24962;BME280;12992;50.884;13.668;2023-01-08T08:25:32;96543.72;;;7.16;97.47
24962;BME280;12992;50.884;13.668;2023-01-08T08:27:59;96544.84;;;7.20;98.11
24962;BME280;12992;50.884;13.668;2023-01-08T08:30:26;96535.72;;;7.26;97.00
24962;BME280;12992;50.884;13.668;2023-01-08T08:32:52;96521.91;;;7.27;96.62
24962;BME280;12992;50.884;13.668;2023-01-08T08:35:18;96530.97;;;7.38;96.87
24962;BME280;12992;50.884;13.668;2023-01-08T08:37:43;96524.53;;;7.44;95.90
24962;BME280;12992;50.884;13.668;2023-01-08T08:40:09;96538.22;;;7.59;95.65
24962;BME280;12992;50.884;13.668;2023-01-08T08:42:34;96540.47;;;7.67;95.05
24962;BME280;12992;50.884;13.668;2023-01-08T08:45:00;96529.13;;;7.71;94.62
24962;BME280;12992;50.884;13.668;2023-01-08T08:47:25;96524.56;;;7.76;94.95
24962;BME280;12992;50.884;13.668;2023-01-08T08:49:50;96529.78;;;7.83;94.15
24962;BME280;12992;50.884;13.668;2023-01-08T08:52:16;96516.75;;;7.85;93.91
24962;BME280;12992;50.884;13.668;2023-01-08T08:54:41;96505.63;;;7.81;94.05
24962;BME280;12992;50.884;13.668;2023-01-08T08:57:07;96501.28;;;7.80;94.38
24962;BME280;12992;50.884;13.668;2023-01-08T08:59:33;96502.38;;;7.79;94.35
24962;BME280;12992;50.884;13.668;2023-01-08T09:01:58;96504.28;;;7.79;94.41
24962;BME280;12992;50.884;13.668;2023-01-08T09:04:24;96514.31;;;7.83;94.45
24962;BME280;12992;50.884;13.668;2023-01-08T09:06:49;96509.72;;;7.84;94.39
24962;BME280;12992;50.884;13.668;2023-01-08T09:09:14;96511.88;;;7.82;94.03
24962;BME280;12992;50.884;13.668;2023-01-08T09:11:40;96500.22;;;7.81;93.39
24962;BME280;12992;50.884;13.668;2023-01-08T09:14:05;96482.28;;;7.75;93.39
24962;BME280;12992;50.884;13.668;2023-01-08T09:16:30;96476.56;;;7.72;93.98
24962;BME280;12992;50.884;13.668;2023-01-08T09:18:57;96455.09;;;7.65;93.84
24962;BME280;12992;50.884;13.668;2023-01-08T09:21:22;96466.25;;;7.69;94.53
24962;BME280;12992;50.884;13.668;2023-01-08T09:23:48;96466.25;;;7.69;94.45
24962;BME280;12992;50.884;13.668;2023-01-08T09:26:13;96471.13;;;7.72;94.23
24962;BME280;12992;50.884;13.668;2023-01-08T09:28:39;96467.09;;;7.74;94.40
24962;BME280;12992;50.884;13.668;2023-01-08T09:31:04;96457.88;;;7.75;93.94
24962;BME280;12992;50.884;13.668;2023-01-08T09:33:30;96458.69;;;7.76;94.25
24962;BME280;12992;50.884;13.668;2023-01-08T09:35:55;96457.38;;;7.78;94.13
24962;BME280;12992;50.884;13.668;2023-01-08T09:38:21;96449.75;;;7.75;94.05
24962;BME280;12992;50.884;13.668;2023-01-08T09:40:54;96441.59;;;7.70;94.00
24962;BME280;12992;50.884;13.668;2023-01-08T09:43:22;96443.97;;;7.66;94.48
24962;BME280;12992;50.884;13.668;2023-01-08T09:45:51;96433.38;;;7.60;94.96
24962;BME280;12992;50.884;13.668;2023-01-08T09:48:19;96434.97;;;7.56;95.46
24962;BME280;12992;50.884;13.668;2023-01-08T09:50:47;96437.97;;;7.59;95.19
24962;BME280;12992;50.884;13.668;2023-01-08T09:53:14;96436.91;;;7.60;95.26
24962;BME280;12992;50.884;13.668;2023-01-08T09:55:40;96456.44;;;7.67;96.15
24962;BME280;12992;50.884;13.668;2023-01-08T09:58:22;96445.13;;;7.71;94.51
24962;BME280;12992;50.884;13.668;2023-01-08T10:00:48;96444.31;;;7.70;93.96
24962;BME280;12992;50.884;13.668;2023-01-08T10:03:14;96445.38;;;7.69;95.71
24962;BME280;12992;50.884;13.668;2023-01-08T10:05:39;96440.78;;;7.70;95.00
24962;BME280;12992;50.884;13.668;2023-01-08T10:08:10;96441.00;;;7.68;94.69
24962;BME280;12992;50.884;13.668;2023-01-08T10:10:37;96428.81;;;7.65;94.05
24962;BME280;12992;50.884;13.668;2023-01-08T10:13:04;96433.41;;;7.65;94.08
24962;BME280;12992;50.884;13.668;2023-01-08T10:15:29;96432.59;;;7.64;95.01
24962;BME280;12992;50.884;13.668;2023-01-08T10:18:03;96442.13;;;7.72;94.15
24962;BME280;12992;50.884;13.668;2023-01-08T10:20:30;96433.19;;;7.72;94.02
24962;BME280;12992;50.884;13.668;2023-01-08T10:23:08;96424.25;;;7.71;94.08
24962;BME280;12992;50.884;13.668;2023-01-08T10:25:47;96433.00;;;7.78;93.87
24962;BME280;12992;50.884;13.668;2023-01-08T10:28:21;96414.78;;;7.74;93.42
24962;BME280;12992;50.884;13.668;2023-01-08T10:30:49;96403.59;;;7.65;93.59
24962;BME280;12992;50.884;13.668;2023-01-08T10:33:20;96400.03;;;7.59;93.40
24962;BME280;12992;50.884;13.668;2023-01-08T10:36:01;96395.13;;;7.56;93.95
24962;BME280;12992;50.884;13.668;2023-01-08T10:38:29;96383.47;;;7.56;93.50
24962;BME280;12992;50.884;13.668;2023-01-08T10:40:55;96392.75;;;7.60;93.62
24962;BME280;12992;50.884;13.668;2023-01-08T10:43:25;96378.41;;;7.64;93.21
24962;BME280;12992;50.884;13.668;2023-01-08T10:45:56;96384.97;;;7.74;92.89
24962;BME280;12992;50.884;13.668;2023-01-08T10:48:26;96386.59;;;7.75;92.29
24962;BME280;12992;50.884;13.668;2023-01-08T10:51:03;96390.13;;;7.75;91.70
24962;BME280;12992;50.884;13.668;2023-01-08T10:53:28;96388.00;;;7.82;91.83
24962;BME280;12992;50.884;13.668;2023-01-08T10:55:59;96389.94;;;7.87;91.50
24962;BME280;12992;50.884;13.668;2023-01-08T10:58:27;96376.41;;;7.87;90.86
24962;BME280;12992;50.884;13.668;2023-01-08T11:00:53;96373.69;;;7.87;90.72
24962;BME280;12992;50.884;13.668;2023-01-08T11:03:28;96378.84;;;7.88;91.04
24962;BME280;12992;50.884;13.668;2023-01-08T11:05:54;96358.78;;;7.89;90.56
24962;BME280;12992;50.884;13.668;2023-01-08T11:08:20;96377.78;;;7.94;90.41
24962;BME280;12992;50.884;13.668;2023-01-08T11:10:57;96378.09;;;8.03;90.10
24962;BME280;12992;50.884;13.668;2023-01-08T11:13:24;96380.31;;;8.06;89.93
24962;BME280;12992;50.884;13.668;2023-01-08T11:16:03;96385.72;;;8.06;89.94
24962;BME280;12992;50.884;13.668;2023-01-08T11:18:29;96386.81;;;8.10;89.64
24962;BME280;12992;50.884;13.668;2023-01-08T11:21:09;96378.72;;;8.15;89.75
24962;BME280;12992;50.884;13.668;2023-01-08T11:23:35;96379.53;;;8.16;89.48
24962;BME280;12992;50.884;13.668;2023-01-08T11:26:10;96382.03;;;8.22;89.60
24962;BME280;12992;50.884;13.668;2023-01-08T11:28:47;96394.53;;;8.34;89.01
24962;BME280;12992;50.884;13.668;2023-01-08T11:31:18;96394.31;;;8.35;88.63
24962;BME280;12992;50.884;13.668;2023-01-08T11:33:51;96392.72;;;8.39;88.81
24962;BME280;12992;50.884;13.668;2023-01-08T11:36:33;96399.50;;;8.42;88.85
24962;BME280;12992;50.884;13.668;2023-01-08T11:39:00;96396.25;;;8.45;89.02
24962;BME280;12992;50.884;13.668;2023-01-08T11:52:05;96330.50;;;8.28;89.34
24962;BME280;12992;50.884;13.668;2023-01-08T11:58:43;96327.22;;;8.20;90.09
24962;BME280;12992;50.884;13.668;2023-01-08T12:01:27;96320.69;;;8.21;89.79
24962;BME280;12992;50.884;13.668;2023-01-08T12:04:19;96334.88;;;8.34;89.55
24962;BME280;12992;50.884;13.668;2023-01-08T12:07:01;96341.44;;;8.43;89.33
24962;BME280;12992;50.884;13.668;2023-01-08T12:15:18;96344.22;;;8.58;88.39
24962;BME280;12992;50.884;13.668;2023-01-08T12:18:13;96339.31;;;8.60;88.12
24962;BME280;12992;50.884;13.668;2023-01-08T12:20:57;96351.56;;;8.68;88.15
24962;BME280;12992;50.884;13.668;2023-01-08T12:23:28;96312.97;;;8.56;87.88
24962;BME280;12992;50.884;13.668;2023-01-08T12:26:08;96305.63;;;8.46;88.70
24962;BME280;12992;50.884;13.668;2023-01-08T12:31:48;96306.72;;;8.45;89.43
24962;BME280;12992;50.884;13.668;2023-01-08T12:34:30;96296.94;;;8.44;88.79
24962;BME280;12992;50.884;13.668;2023-01-08T12:37:17;96300.75;;;8.43;88.28
24962;BME280;12992;50.884;13.668;2023-01-08T12:39:50;96292.03;;;8.36;88.45
24962;BME280;12992;50.884;13.668;2023-01-08T12:42:18;96290.94;;;8.32;89.20
24962;BME280;12992;50.884;13.668;2023-01-08T12:44:50;96275.97;;;8.29;89.74
24962;BME280;12992;50.884;13.668;2023-01-08T12:47:27;96293.59;;;8.27;89.87
24962;BME280;12992;50.884;13.668;2023-01-08T12:50:04;96287.41;;;8.31;89.59
24962;BME280;12992;50.884;13.668;2023-01-08T12:53:01;96291.50;;;8.39;89.94
24962;BME280;12992;50.884;13.668;2023-01-08T12:55:41;96295.06;;;8.39;89.55
24962;BME280;12992;50.884;13.668;2023-01-08T12:58:22;96302.91;;;8.46;89.43
24962;BME280;12992;50.884;13.668;2023-01-08T13:01:27;96309.44;;;8.55;88.92
24962;BME280;12992;50.884;13.668;2023-01-08T13:03:57;96304.84;;;8.50;88.89
24962;BME280;12992;50.884;13.668;2023-01-08T13:06:23;96301.31;;;8.50;89.16
24962;BME280;12992;50.884;13.668;2023-01-08T13:08:51;96299.69;;;8.49;89.19
24962;BME280;12992;50.884;13.668;2023-01-08T13:11:29;96301.00;;;8.46;89.82
24962;BME280;12992;50.884;13.668;2023-01-08T13:14:07;96296.44;;;8.52;89.37
24962;BME280;12992;50.884;13.668;2023-01-08T13:16:36;96282.84;;;8.47;89.05
24962;BME280;12992;50.884;13.668;2023-01-08T13:19:04;96271.16;;;8.36;89.36
24962;BME280;12992;50.884;13.668;2023-01-08T13:21:49;96269.22;;;8.32;89.46
24962;BME280;12992;50.884;13.668;2023-01-08T13:29:45;96225.97;;;7.89;91.22
24962;BME280;12992;50.884;13.668;2023-01-08T13:35:18;96231.63;;;7.78;92.93
24962;BME280;12992;50.884;13.668;2023-01-08T13:37:49;96235.66;;;7.75;93.20
24962;BME280;12992;50.884;13.668;2023-01-08T13:43:23;96237.81;;;7.73;94.65
24962;BME280;12992;50.884;13.668;2023-01-08T13:46:04;96228.00;;;7.62;94.88